Time;durP1;ratioP1;P1;durP2;ratioP2;P2;SDS_P1;SDS_P2;PMS_P1;PMS_P2;Temp;Humidity;BMP_temperature;BMP_pressure;BME280_temperature;BME280_humidity;BME280_pressure;Samples;Min_cycle;Max_cycle;Signal;HPM_P1;HPM_P2
2022/09/08 00:01:12;;;;;;;1.80;1.55;;;24.30;59.40;;;;;;5053837;28;20238;-82
2022/09/08 00:03:40;;;;;;;1.60;1.35;;;24.30;59.40;;;;;;5054176;28;20676;-83
2022/09/08 00:06:11;;;;;;;2.25;1.67;;;24.30;59.50;;;;;;5054517;28;20191;-83
2022/09/08 00:08:39;;;;;;;1.38;1.27;;;24.30;59.50;;;;;;5054092;28;20195;-83
2022/09/08 00:11:07;;;;;;;2.00;1.50;;;24.30;59.50;;;;;;5054643;28;20215;-83
2022/09/08 00:13:36;;;;;;;1.90;1.52;;;24.30;59.50;;;;;;5037295;28;20208;-83
2022/09/08 00:16:05;;;;;;;1.70;1.60;;;24.30;59.60;;;;;;5033956;28;20206;-83
2022/09/08 00:18:33;;;;;;;1.60;1.50;;;24.30;59.60;;;;;;5034859;28;20206;-83
2022/09/08 00:21:00;;;;;;;1.73;1.60;;;24.30;59.60;;;;;;5034127;28;20319;-82
2022/09/08 00:23:29;;;;;;;2.22;1.58;;;24.30;59.60;;;;;;5033844;28;20211;-83
2022/09/08 00:25:56;;;;;;;1.73;1.45;;;24.30;59.60;;;;;;5033648;28;20258;-82
2022/09/08 00:28:23;;;;;;;1.95;1.85;;;24.30;59.60;;;;;;5033583;28;20203;-82
2022/09/08 00:30:51;;;;;;;1.83;1.55;;;24.30;59.60;;;;;;5033733;28;20352;-82
2022/09/08 00:33:39;;;;;;;1.70;1.60;;;24.30;59.60;;;;;;5034969;28;20262;-82
2022/09/08 00:36:09;;;;;;;1.80;1.70;;;24.30;59.60;;;;;;5034938;28;20247;-83
2022/09/08 00:38:38;;;;;;;2.05;1.88;;;24.20;59.60;;;;;;5033500;28;20711;-83
2022/09/08 00:41:12;;;;;;;1.60;1.50;;;24.20;59.60;;;;;;5034940;28;20235;-83
2022/09/08 00:43:40;;;;;;;1.98;1.60;;;24.20;59.60;;;;;;5035127;28;20188;-83
2022/09/08 00:46:18;;;;;;;1.70;1.60;;;24.20;59.70;;;;;;5034360;28;20203;-83
2022/09/08 00:48:47;;;;;;;1.85;1.67;;;24.20;59.70;;;;;;5035275;28;20200;-83
2022/09/08 00:51:14;;;;;;;1.98;1.88;;;24.30;59.80;;;;;;5035075;28;20243;-83
2022/09/08 00:53:43;;;;;;;1.80;1.70;;;24.20;59.80;;;;;;5033489;28;20227;-83
2022/09/08 00:56:10;;;;;;;1.92;1.80;;;24.20;59.80;;;;;;5034677;28;20208;-83
2022/09/08 00:58:38;;;;;;;1.98;1.60;;;24.20;59.80;;;;;;5051905;28;20204;-83
2022/09/08 01:01:06;;;;;;;2.30;2.05;;;24.20;59.90;;;;;;5053167;28;20273;-83
2022/09/08 01:03:33;;;;;;;2.03;1.83;;;24.20;59.90;;;;;;5054044;28;20198;-83
2022/09/08 01:06:06;;;;;;;1.70;1.60;;;24.20;59.90;;;;;;5052966;28;20203;-83
2022/09/08 01:14:12;;;;;;;1.80;1.70;;;24.20;60.00;;;;;;5053116;28;20199;-83
2022/09/08 01:16:41;;;;;;;1.83;1.70;;;24.20;60.00;;;;;;5054421;28;20237;-83
2022/09/08 01:19:11;;;;;;;2.00;1.88;;;24.20;60.00;;;;;;5053245;28;20199;-83
2022/09/08 01:21:42;;;;;;;2.20;1.77;;;24.20;60.00;;;;;;5052999;28;20733;-83
2022/09/08 01:24:36;;;;;;;2.70;1.92;;;24.20;60.00;;;;;;5052671;28;20730;-83
2022/09/08 01:27:21;;;;;;;2.10;1.90;;;24.20;60.00;;;;;;5046318;28;20203;-83
2022/09/08 01:29:48;;;;;;;3.67;1.60;;;24.20;60.00;;;;;;5052507;28;20234;-83
2022/09/08 01:32:16;;;;;;;3.33;1.80;;;24.20;60.00;;;;;;5052470;28;20195;-83
2022/09/08 01:34:44;;;;;;;2.03;1.85;;;24.10;60.00;;;;;;5052599;28;20200;-83
2022/09/08 01:37:11;;;;;;;1.60;1.50;;;24.10;60.10;;;;;;5052680;28;20200;-83
2022/09/08 01:39:38;;;;;;;1.80;1.70;;;24.10;60.20;;;;;;5052321;28;20204;-83
2022/09/08 01:42:06;;;;;;;2.30;1.90;;;24.10;60.20;;;;;;5052445;28;20249;-83
2022/09/08 01:44:35;;;;;;;2.13;1.92;;;24.10;60.20;;;;;;5053298;28;20198;-83
2022/09/08 01:47:02;;;;;;;1.85;1.75;;;24.10;60.30;;;;;;5057015;28;20206;-83
2022/09/08 01:49:29;;;;;;;2.15;1.85;;;24.10;60.30;;;;;;5056863;28;20202;-83
2022/09/08 01:51:56;;;;;;;2.03;1.80;;;24.10;60.40;;;;;;5058640;28;20210;-83
2022/09/08 01:54:23;;;;;;;2.30;1.92;;;24.10;60.40;;;;;;5056524;28;20207;-83
2022/09/08 01:56:50;;;;;;;3.22;1.85;;;24.00;60.30;;;;;;5056440;28;20566;-83
2022/09/08 01:59:17;;;;;;;2.97;2.00;;;24.00;60.40;;;;;;5056233;28;20199;-83
2022/09/08 02:01:46;;;;;;;2.05;1.70;;;24.00;60.50;;;;;;5056626;28;20223;-83
2022/09/08 02:04:13;;;;;;;1.70;1.60;;;24.00;60.40;;;;;;5056671;28;20660;-83
2022/09/08 02:06:40;;;;;;;2.88;1.90;;;24.00;60.50;;;;;;5056102;28;20199;-83
2022/09/08 02:09:07;;;;;;;2.00;1.90;;;24.00;60.50;;;;;;5056533;28;20196;-83
2022/09/08 02:11:34;;;;;;;1.92;1.70;;;24.00;60.50;;;;;;5056754;28;20261;-82
2022/09/08 02:14:02;;;;;;;1.90;1.80;;;24.00;60.50;;;;;;5056417;28;20218;-83
2022/09/08 02:16:30;;;;;;;2.13;1.80;;;24.00;60.60;;;;;;5055935;28;20667;-83
2022/09/08 02:18:59;;;;;;;2.10;1.90;;;24.00;60.70;;;;;;5057899;28;20226;-83
2022/09/08 02:21:27;;;;;;;2.00;1.90;;;24.00;61.50;;;;;;5060047;28;20219;-83
2022/09/08 02:23:54;;;;;;;2.30;1.88;;;24.00;60.70;;;;;;5060133;28;20207;-83
2022/09/08 02:26:22;;;;;;;2.10;1.90;;;24.00;60.70;;;;;;5056919;28;20199;-83
2022/09/08 02:28:51;;;;;;;2.65;1.90;;;24.00;60.80;;;;;;5058159;28;20196;-83
2022/09/08 02:31:18;;;;;;;2.47;1.80;;;24.00;60.80;;;;;;5057015;28;20257;-83
2022/09/08 02:33:46;;;;;;;1.98;1.88;;;24.00;60.80;;;;;;5059785;28;20245;-83
2022/09/08 02:36:14;;;;;;;2.45;1.88;;;24.00;60.80;;;;;;5058215;28;20223;-83
2022/09/08 02:38:42;;;;;;;1.80;1.70;;;24.00;60.80;;;;;;5059252;28;20199;-83
2022/09/08 02:41:10;;;;;;;1.88;1.73;;;24.00;60.80;;;;;;5058301;28;20230;-83
2022/09/08 02:43:37;;;;;;;1.60;1.50;;;24.00;60.80;;;;;;5055945;28;20191;-83
2022/09/08 02:46:06;;;;;;;1.83;1.70;;;24.00;60.80;;;;;;5055606;28;20253;-83
2022/09/08 02:48:33;;;;;;;1.70;1.60;;;24.00;60.90;;;;;;5055547;28;20234;-83
2022/09/08 02:51:01;;;;;;;2.08;1.88;;;23.90;60.80;;;;;;5056767;28;20215;-83
2022/09/08 02:53:30;;;;;;;2.45;1.90;;;23.90;60.90;;;;;;5056431;28;20290;-83
2022/09/08 02:55:59;;;;;;;2.25;1.98;;;23.90;60.80;;;;;;5059545;28;20267;-83
2022/09/08 02:58:26;;;;;;;1.77;1.65;;;23.90;60.90;;;;;;5068568;28;20200;-83
2022/09/08 03:00:54;;;;;;;2.10;1.90;;;23.90;61.00;;;;;;5067397;28;20223;-83
2022/09/08 03:03:22;;;;;;;2.13;1.90;;;23.90;61.00;;;;;;5055834;28;20874;-83
2022/09/08 03:05:49;;;;;;;1.75;1.65;;;24.00;61.00;;;;;;5055625;28;20750;-83
2022/09/08 03:08:16;;;;;;;2.45;1.80;;;23.90;60.90;;;;;;5055173;28;20222;-83
2022/09/08 03:10:45;;;;;;;2.00;1.90;;;23.90;61.10;;;;;;5055621;28;20318;-83
2022/09/08 03:13:12;;;;;;;1.75;1.65;;;24.00;61.40;;;;;;5055162;28;20660;-83
2022/09/08 03:15:39;;;;;;;4.10;2.10;;;23.90;61.40;;;;;;5055062;28;20648;-83
2022/09/08 03:18:07;;;;;;;1.83;1.73;;;23.90;61.40;;;;;;5055040;28;20303;-83
2022/09/08 03:20:34;;;;;;;2.08;1.83;;;24.00;61.40;;;;;;5054842;28;20223;-83
2022/09/08 03:23:03;;;;;;;2.00;1.90;;;24.00;61.30;;;;;;5054796;28;20195;-83
2022/09/08 03:25:30;;;;;;;1.88;1.70;;;24.00;61.10;;;;;;5055098;28;20195;-83
2022/09/08 03:27:59;;;;;;;2.65;1.98;;;24.00;61.00;;;;;;5056012;28;20195;-83
2022/09/08 03:30:26;;;;;;;1.88;1.77;;;24.10;60.90;;;;;;5055167;28;20222;-83
2022/09/08 03:32:53;;;;;;;2.35;1.88;;;24.10;60.90;;;;;;5054644;28;20638;-83
2022/09/08 03:35:21;;;;;;;2.05;1.80;;;24.20;60.90;;;;;;5054628;28;20589;-83
2022/09/08 03:37:49;;;;;;;2.03;1.75;;;24.20;60.70;;;;;;5056054;28;20196;-83
2022/09/08 03:40:18;;;;;;;1.70;1.52;;;24.20;60.60;;;;;;5054762;28;20230;-83
2022/09/08 03:42:45;;;;;;;1.70;1.60;;;24.20;60.50;;;;;;5054758;28;20579;-83
2022/09/08 03:45:15;;;;;;;1.80;1.70;;;24.20;60.40;;;;;;5055699;28;20198;-83
2022/09/08 03:47:42;;;;;;;1.60;1.50;;;24.20;60.40;;;;;;5054715;28;20192;-83
2022/09/08 03:50:10;;;;;;;1.70;1.60;;;24.20;60.30;;;;;;5054422;28;20215;-83
2022/09/08 03:52:37;;;;;;;1.70;1.60;;;24.20;60.10;;;;;;5054303;28;20195;-83
2022/09/08 03:55:05;;;;;;;2.05;1.83;;;24.20;60.20;;;;;;5054246;28;20205;-83
2022/09/08 03:57:32;;;;;;;1.63;1.52;;;24.20;60.20;;;;;;5054604;28;20227;-83
2022/09/08 03:59:59;;;;;;;1.80;1.60;;;24.20;60.20;;;;;;5055822;28;20686;-83
2022/09/08 04:02:29;;;;;;;1.95;1.60;;;24.30;60.20;;;;;;5054792;28;20249;-83
2022/09/08 04:04:57;;;;;;;1.50;1.40;;;24.30;60.20;;;;;;5056074;28;20294;-83
2022/09/08 04:07:25;;;;;;;1.40;1.30;;;24.30;60.20;;;;;;5056233;28;20210;-83
2022/09/08 04:09:53;;;;;;;1.67;1.58;;;24.20;59.70;;;;;;5056876;28;20237;-83
2022/09/08 04:12:20;;;;;;;1.52;1.42;;;24.30;60.00;;;;;;5057129;28;20199;-83
2022/09/08 04:14:47;;;;;;;1.60;1.50;;;24.30;60.00;;;;;;5056475;28;20203;-83
2022/09/08 04:17:14;;;;;;;1.55;1.45;;;24.30;60.00;;;;;;5055774;28;20206;-83
2022/09/08 04:19:43;;;;;;;1.80;1.40;;;24.30;60.00;;;;;;5057105;28;20349;-83
2022/09/08 04:22:11;;;;;;;1.42;1.33;;;24.30;60.10;;;;;;5054813;28;20215;-83
2022/09/08 04:24:38;;;;;;;1.45;1.35;;;24.20;60.00;;;;;;5054319;28;20203;-83
2022/09/08 04:27:05;;;;;;;1.63;1.35;;;24.20;60.10;;;;;;5054807;28;20191;-83
2022/09/08 04:29:34;;;;;;;2.45;1.55;;;24.20;60.10;;;;;;5055597;28;20203;-84
2022/09/08 04:32:02;;;;;;;1.77;1.15;;;24.20;60.10;;;;;;5053785;28;20211;-83
2022/09/08 04:34:29;;;;;;;2.15;1.50;;;24.20;60.10;;;;;;5053837;28;20196;-83
2022/09/08 04:36:58;;;;;;;1.70;1.60;;;24.20;60.20;;;;;;5054506;28;20290;-83
2022/09/08 04:39:25;;;;;;;1.25;1.15;;;24.20;60.20;;;;;;5055159;28;20211;-83
2022/09/08 04:41:53;;;;;;;1.38;1.27;;;24.20;60.20;;;;;;5053852;28;20608;-83
2022/09/08 04:44:20;;;;;;;1.20;1.20;;;24.20;60.20;;;;;;5053640;28;20199;-83
2022/09/08 04:46:47;;;;;;;1.30;1.20;;;24.10;60.20;;;;;;5053623;28;20218;-83
2022/09/08 04:49:14;;;;;;;1.30;1.20;;;24.10;60.30;;;;;;5053375;28;20219;-83
2022/09/08 04:51:42;;;;;;;1.30;1.20;;;24.10;60.30;;;;;;5054655;28;20203;-83
2022/09/08 04:54:11;;;;;;;1.20;1.20;;;24.10;61.20;;;;;;5054397;28;20203;-83
2022/09/08 04:56:38;;;;;;;1.20;1.10;;;24.10;60.40;;;;;;5052911;28;20196;-83
2022/09/08 04:59:05;;;;;;;1.50;1.35;;;24.10;60.40;;;;;;5052907;28;20195;-83
2022/09/08 05:01:34;;;;;;;1.48;1.38;;;24.00;60.40;;;;;;5052959;28;20318;-83
2022/09/08 05:04:02;;;;;;;1.30;1.20;;;24.00;60.50;;;;;;5053401;28;20199;-83
2022/09/08 05:06:32;;;;;;;1.58;1.20;;;24.10;60.70;;;;;;5053392;28;20199;-83
2022/09/08 05:09:00;;;;;;;1.50;1.40;;;24.00;60.70;;;;;;5053608;28;20263;-83
2022/09/08 05:11:29;;;;;;;1.02;1.02;;;24.00;60.70;;;;;;5055480;28;20215;-83
2022/09/08 05:13:57;;;;;;;0.82;0.82;;;24.00;60.50;;;;;;5056658;28;20190;-84
2022/09/08 05:16:25;;;;;;;1.23;1.10;;;24.00;60.80;;;;;;5054472;28;20226;-84
2022/09/08 05:18:53;;;;;;;1.23;1.15;;;24.00;60.80;;;;;;5054033;28;20579;-84
2022/09/08 05:21:20;;;;;;;1.10;1.10;;;23.90;60.70;;;;;;5052509;28;20255;-83
2022/09/08 05:23:50;;;;;;;1.13;1.13;;;24.00;60.90;;;;;;5052705;28;20286;-83
2022/09/08 05:26:19;;;;;;;1.20;1.20;;;23.90;60.70;;;;;;5052567;28;20686;-83
2022/09/08 05:28:48;;;;;;;1.13;1.05;;;23.90;60.80;;;;;;5052736;28;20230;-83
2022/09/08 05:31:16;;;;;;;1.02;1.00;;;23.90;60.90;;;;;;5053126;28;20219;-83
2022/09/08 05:33:44;;;;;;;1.00;1.00;;;23.90;60.90;;;;;;5053044;28;20199;-83
2022/09/08 05:36:12;;;;;;;1.40;1.10;;;23.90;60.90;;;;;;5052819;28;20203;-83
2022/09/08 05:38:39;;;;;;;1.20;1.10;;;23.90;60.90;;;;;;5052836;28;20285;-83
2022/09/08 05:41:06;;;;;;;1.30;1.00;;;23.90;60.90;;;;;;5052490;28;20219;-83
2022/09/08 05:43:34;;;;;;;0.98;0.98;;;23.80;60.80;;;;;;5052427;28;20282;-83
2022/09/08 05:46:03;;;;;;;1.10;1.02;;;23.90;60.90;;;;;;5052562;28;20264;-83
2022/09/08 05:48:30;;;;;;;1.00;1.00;;;23.90;60.90;;;;;;5052552;28;20191;-84
2022/09/08 05:50:57;;;;;;;1.20;1.10;;;23.90;60.90;;;;;;5052788;28;20225;-84
2022/09/08 05:53:25;;;;;;;1.20;1.10;;;23.80;60.90;;;;;;5053412;28;20202;-84
2022/09/08 05:55:56;;;;;;;2.55;0.90;;;23.80;60.90;;;;;;5052439;28;20575;-83
2022/09/08 05:58:23;;;;;;;1.27;1.00;;;23.80;61.00;;;;;;5052916;28;20306;-83
2022/09/08 06:00:55;;;;;;;1.65;1.00;;;23.80;61.00;;;;;;5053319;28;20300;-83
2022/09/08 06:03:23;;;;;;;1.35;0.90;;;23.80;60.90;;;;;;5052801;28;20262;-83
2022/09/08 06:05:50;;;;;;;1.20;1.10;;;23.80;60.90;;;;;;5052450;28;20552;-83
2022/09/08 06:08:20;;;;;;;1.38;0.90;;;23.80;60.90;;;;;;5054194;28;20253;-83
2022/09/08 06:10:52;;;;;;;1.08;1.08;;;23.90;60.90;;;;;;5052430;28;20771;-83
2022/09/08 06:13:21;;;;;;;1.25;1.00;;;23.90;60.90;;;;;;5052650;28;20200;-83
2022/09/08 06:15:48;;;;;;;0.85;0.85;;;23.90;60.70;;;;;;5055143;28;20678;-83
2022/09/08 06:18:15;;;;;;;2.58;1.00;;;23.90;60.70;;;;;;5055338;28;20203;-84
2022/09/08 06:20:44;;;;;;;1.10;1.00;;;23.90;60.50;;;;;;5053282;28;20257;-84
2022/09/08 06:23:11;;;;;;;1.08;0.80;;;24.00;60.50;;;;;;5058958;28;20219;-84
2022/09/08 06:25:42;;;;;;;1.85;0.90;;;24.00;60.50;;;;;;5059473;28;20230;-84
2022/09/08 06:28:30;;;;;;;0.95;0.95;;;24.00;60.40;;;;;;5057025;28;20697;-83
2022/09/08 06:30:57;;;;;;;1.63;0.95;;;24.00;60.30;;;;;;5054297;28;20223;-83
2022/09/08 06:33:29;;;;;;;1.00;0.73;;;24.00;60.30;;;;;;5055993;28;20230;-83
2022/09/08 06:36:02;;;;;;;0.82;0.82;;;24.00;60.20;;;;;;5056547;28;20196;-83
2022/09/08 06:38:32;;;;;;;0.60;0.60;;;24.00;60.20;;;;;;5056340;28;20656;-84
2022/09/08 06:41:04;;;;;;;0.80;0.80;;;24.00;60.20;;;;;;5057716;28;20253;-84
2022/09/08 06:43:34;;;;;;;0.82;0.82;;;24.00;60.10;;;;;;5056175;28;20218;-83
2022/09/08 06:46:01;;;;;;;0.75;0.75;;;24.00;60.20;;;;;;5056250;28;20188;-83
2022/09/08 06:48:30;;;;;;;0.98;0.63;;;24.00;60.10;;;;;;5056782;28;20195;-83
2022/09/08 06:51:09;;;;;;;0.90;0.90;;;24.00;60.10;;;;;;5055506;28;20226;-83
2022/09/08 06:53:37;;;;;;;0.88;0.88;;;24.00;60.10;;;;;;5055757;28;20191;-83
2022/09/08 06:56:10;;;;;;;0.80;0.80;;;24.00;60.10;;;;;;5057949;28;20203;-84
2022/09/08 06:58:41;;;;;;;1.08;0.82;;;24.00;60.00;;;;;;5056067;28;20188;-84
2022/09/08 07:01:14;;;;;;;1.52;0.85;;;24.00;60.00;;;;;;5056546;28;20219;-84
2022/09/08 07:03:49;;;;;;;1.13;0.73;;;24.00;60.10;;;;;;5055728;28;20219;-84
2022/09/08 07:06:18;;;;;;;1.02;0.90;;;24.00;60.00;;;;;;5055186;28;20195;-84
2022/09/08 07:09:01;;;;;;;0.90;0.90;;;24.00;60.00;;;;;;5055292;28;20195;-83
2022/09/08 07:11:34;;;;;;;1.80;0.80;;;24.00;60.00;;;;;;5055808;28;20215;-84
2022/09/08 07:14:05;;;;;;;0.73;0.73;;;24.00;60.00;;;;;;5056943;28;20275;-84
2022/09/08 07:16:36;;;;;;;0.70;0.70;;;24.00;60.00;;;;;;5055884;28;20192;-84
2022/09/08 07:19:05;;;;;;;1.15;0.80;;;24.00;60.00;;;;;;5056170;28;20595;-83
2022/09/08 07:21:43;;;;;;;0.80;0.80;;;24.00;59.90;;;;;;5056089;28;20215;-83
2022/09/08 07:24:13;;;;;;;0.70;0.70;;;24.00;59.90;;;;;;5055492;28;20187;-84
2022/09/08 07:26:46;;;;;;;0.98;0.98;;;24.00;59.90;;;;;;5055028;28;20249;-83
2022/09/08 07:29:19;;;;;;;1.17;0.82;;;24.00;59.90;;;;;;5054947;28;20210;-83
2022/09/08 07:31:49;;;;;;;0.68;0.65;;;24.00;59.90;;;;;;5054801;28;20706;-83
2022/09/08 07:34:18;;;;;;;1.08;0.82;;;24.00;59.90;;;;;;5054733;28;20213;-83
2022/09/08 07:36:50;;;;;;;0.77;0.77;;;24.00;59.80;;;;;;5054572;28;20222;-83
2022/09/08 07:39:19;;;;;;;0.70;0.70;;;24.00;59.80;;;;;;5054891;28;20188;-83
2022/09/08 07:41:48;;;;;;;0.65;0.52;;;24.00;59.70;;;;;;5054474;28;20218;-83
2022/09/08 07:44:16;;;;;;;0.70;0.70;;;24.00;59.60;;;;;;5054204;28;20199;-83
2022/09/08 07:46:58;;;;;;;0.70;0.70;;;24.00;59.60;;;;;;5054206;28;20288;-83
2022/09/08 07:49:27;;;;;;;0.70;0.65;;;24.10;59.60;;;;;;5054255;28;20195;-83
2022/09/08 07:51:59;;;;;;;0.65;0.65;;;24.10;59.50;;;;;;5054648;28;20239;-83
2022/09/08 07:54:49;;;;;;;0.70;0.70;;;24.10;59.50;;;;;;5054330;28;20670;-83
2022/09/08 07:57:19;;;;;;;0.80;0.80;;;24.30;59.20;;;;;;5054350;28;20206;-83
2022/09/08 07:59:48;;;;;;;1.08;0.88;;;24.50;58.50;;;;;;5054478;28;20199;-84
2022/09/08 08:02:28;;;;;;;1.10;0.70;;;24.80;57.90;;;;;;5054470;28;20207;-83
2022/09/08 08:05:00;;;;;;;0.75;0.75;;;25.10;57.30;;;;;;5055722;28;20207;-83
2022/09/08 08:07:34;;;;;;;1.02;0.80;;;25.30;56.60;;;;;;5057677;28;20192;-84
2022/09/08 08:10:03;;;;;;;1.10;0.80;;;25.50;56.20;;;;;;5054617;28;20337;-84
2022/09/08 08:12:32;;;;;;;1.08;0.90;;;25.70;55.80;;;;;;5054195;28;20647;-84
2022/09/08 08:15:01;;;;;;;0.80;0.73;;;25.90;55.20;;;;;;5054413;28;20286;-84
2022/09/08 08:17:34;;;;;;;0.60;0.60;;;26.20;54.70;;;;;;5056779;28;20199;-84
2022/09/08 08:20:08;;;;;;;1.00;0.80;;;26.40;54.10;;;;;;5056289;28;20219;-84
2022/09/08 08:22:44;;;;;;;0.80;0.80;;;26.60;53.40;;;;;;5055447;28;20222;-84
2022/09/08 08:25:16;;;;;;;0.70;0.70;;;26.80;52.90;;;;;;5054430;28;20194;-84
2022/09/08 08:27:45;;;;;;;0.57;0.50;;;27.00;52.60;;;;;;5053613;28;20213;-84
2022/09/08 08:30:17;;;;;;;0.60;0.60;;;27.10;52.40;;;;;;5053572;28;20222;-84
2022/09/08 08:32:46;;;;;;;1.20;0.70;;;27.10;52.30;;;;;;5053937;28;20191;-84
2022/09/08 08:35:16;;;;;;;0.88;0.80;;;27.20;52.10;;;;;;5053968;28;20203;-83
2022/09/08 08:37:45;;;;;;;0.32;0.32;;;27.20;51.80;;;;;;5054711;28;20273;-83
2022/09/08 08:40:34;;;;;;;2.42;0.68;;;27.30;51.40;;;;;;5053248;28;20688;-83
2022/09/08 08:43:23;;;;;;;0.68;0.68;;;27.50;51.30;;;;;;5053631;28;20683;-83
2022/09/08 08:45:59;;;;;;;0.80;0.80;;;27.60;50.90;;;;;;5053873;28;20565;-83
2022/09/08 08:48:34;;;;;;;1.20;0.70;;;27.70;50.60;;;;;;5054755;28;20257;-84
2022/09/08 08:51:09;;;;;;;0.70;0.57;;;27.80;50.20;;;;;;5053443;28;20222;-84
2022/09/08 08:53:52;;;;;;;1.35;0.77;;;27.90;50.00;;;;;;5052908;28;20191;-84
2022/09/08 08:56:22;;;;;;;0.60;0.60;;;28.00;49.70;;;;;;5053747;28;20249;-84
2022/09/08 08:59:04;;;;;;;0.70;0.70;;;28.00;49.60;;;;;;5052935;28;20195;-84
2022/09/08 09:01:42;;;;;;;1.38;0.80;;;28.00;49.80;;;;;;5052907;28;20589;-84
2022/09/08 09:04:32;;;;;;;1.15;0.70;;;27.80;50.10;;;;;;5052861;28;20247;-84
2022/09/08 09:07:26;;;;;;;0.80;0.80;;;27.60;50.40;;;;;;5053303;28;20336;-84
2022/09/08 09:10:02;;;;;;;0.90;0.60;;;27.50;50.80;;;;;;5053388;28;20194;-84
2022/09/08 09:12:57;;;;;;;0.60;0.60;;;27.30;51.20;;;;;;5053796;28;20613;-84
2022/09/08 09:15:37;;;;;;;0.75;0.75;;;27.20;51.10;;;;;;5033847;28;20758;-84
2022/09/08 09:18:16;;;;;;;0.70;0.68;;;27.20;51.10;;;;;;5052989;28;20671;-84
2022/09/08 09:20:51;;;;;;;0.70;0.63;;;27.30;51.20;;;;;;5052652;28;20964;-84
2022/09/08 09:23:34;;;;;;;1.42;0.70;;;27.40;50.90;;;;;;5054752;28;20217;-84
2022/09/08 09:26:13;;;;;;;1.08;0.70;;;27.60;50.40;;;;;;5053874;28;20195;-84
2022/09/08 09:28:54;;;;;;;0.63;0.60;;;27.70;50.00;;;;;;5053122;28;20277;-84
2022/09/08 09:31:44;;;;;;;1.23;0.82;;;27.80;49.90;;;;;;5052730;28;20218;-84
2022/09/08 09:34:23;;;;;;;0.93;0.77;;;27.80;49.80;;;;;;5052530;28;20236;-84
2022/09/08 09:37:10;;;;;;;0.60;0.60;;;27.70;50.00;;;;;;5052571;28;20190;-84
2022/09/08 09:39:46;;;;;;;1.35;0.80;;;27.50;50.20;;;;;;5049976;28;20231;-84
2022/09/08 09:42:32;;;;;;;0.95;0.85;;;27.40;50.40;;;;;;5052514;28;20688;-84
2022/09/08 09:45:11;;;;;;;0.60;0.60;;;27.20;51.30;;;;;;5052415;28;20199;-84
2022/09/08 09:47:50;;;;;;;0.80;0.80;;;27.20;51.10;;;;;;5061324;28;20194;-84
2022/09/08 09:50:42;;;;;;;0.70;0.63;;;27.10;51.00;;;;;;5055357;28;20219;-84
2022/09/08 09:53:20;;;;;;;0.68;0.68;;;27.00;51.30;;;;;;5055528;28;20661;-84
2022/09/08 09:56:00;;;;;;;0.82;0.75;;;26.90;51.40;;;;;;5056053;28;20244;-84
2022/09/08 09:59:03;;;;;;;1.10;1.00;;;26.80;51.50;;;;;;5056615;28;20224;-84
2022/09/08 10:01:43;;;;;;;0.73;0.70;;;26.80;51.60;;;;;;5059707;28;20218;-84
2022/09/08 10:04:40;;;;;;;0.75;0.75;;;26.80;51.70;;;;;;5066703;28;20215;-84
2022/09/08 10:07:20;;;;;;;0.85;0.85;;;26.80;51.70;;;;;;5063820;28;20632;-83
2022/09/08 10:10:05;;;;;;;0.75;0.57;;;26.80;51.50;;;;;;5056804;28;20191;-83
2022/09/08 10:13:10;;;;;;;0.95;0.77;;;26.90;51.40;;;;;;5056850;28;20273;-84
2022/09/08 10:16:32;;;;;;;0.70;0.70;;;27.00;51.00;;;;;;5055952;28;20631;-84
2022/09/08 10:19:21;;;;;;;0.80;0.80;;;27.20;50.90;;;;;;5055932;28;20226;-83
2022/09/08 10:22:01;;;;;;;0.90;0.77;;;27.30;50.50;;;;;;5055811;28;20266;-83
2022/09/08 10:25:10;;;;;;;0.77;0.77;;;27.30;50.50;;;;;;5055610;28;20241;-83
2022/09/08 10:28:00;;;;;;;0.77;0.77;;;27.20;50.60;;;;;;5039855;28;20201;-83
2022/09/08 10:30:53;;;;;;;0.88;0.85;;;27.20;50.80;;;;;;5055711;28;20229;-83
2022/09/08 10:33:43;;;;;;;0.70;0.70;;;27.10;51.00;;;;;;5055733;28;20244;-83
2022/09/08 10:36:12;;;;;;;0.80;0.80;;;27.00;51.00;;;;;;5055331;28;20194;-83
2022/09/08 10:38:50;;;;;;;0.80;0.60;;;27.00;51.00;;;;;;5055639;28;20190;-83
2022/09/08 10:41:45;;;;;;;0.70;0.70;;;27.00;51.00;;;;;;5055956;28;20237;-83
2022/09/08 10:44:21;;;;;;;0.95;0.80;;;27.00;51.00;;;;;;5055364;28;20215;-84
2022/09/08 10:47:23;;;;;;;0.65;0.65;;;27.00;51.00;;;;;;5055541;28;20629;-84
2022/09/08 10:50:01;;;;;;;0.70;0.70;;;26.90;50.90;;;;;;5056505;28;20195;-84
2022/09/08 10:52:31;;;;;;;0.60;0.60;;;26.90;50.90;;;;;;5055925;28;20191;-84
2022/09/08 10:55:27;;;;;;;0.90;0.60;;;26.80;51.00;;;;;;5055739;28;20195;-84
2022/09/08 10:58:04;;;;;;;0.60;0.60;;;26.70;51.20;;;;;;5055530;28;20190;-84
2022/09/08 11:00:35;;;;;;;0.57;0.57;;;26.70;51.20;;;;;;5055237;28;20339;-84
2022/09/08 11:03:16;;;;;;;1.48;0.80;;;26.70;51.40;;;;;;5054976;28;20214;-84
2022/09/08 11:05:48;;;;;;;0.98;0.90;;;26.60;51.50;;;;;;5056309;28;20643;-84
2022/09/08 11:08:29;;;;;;;0.60;0.60;;;26.60;51.50;;;;;;5054888;28;20191;-84
2022/09/08 11:11:18;;;;;;;0.90;0.80;;;26.60;51.50;;;;;;5055179;28;20315;-84
2022/09/08 11:13:54;;;;;;;0.75;0.75;;;26.60;51.50;;;;;;5055053;28;20298;-84
2022/09/08 11:16:49;;;;;;;0.52;0.52;;;26.60;51.50;;;;;;5054712;28;20203;-84
2022/09/08 11:19:32;;;;;;;0.50;0.50;;;26.50;51.70;;;;;;5055006;28;20206;-83
2022/09/08 11:22:14;;;;;;;0.63;0.63;;;26.50;51.60;;;;;;5054690;28;20222;-83
2022/09/08 11:24:48;;;;;;;0.80;0.80;;;26.50;51.70;;;;;;5054611;28;20211;-83
2022/09/08 11:27:17;;;;;;;1.05;0.70;;;26.40;51.70;;;;;;5055285;28;20191;-84
2022/09/08 11:29:44;;;;;;;0.50;0.50;;;26.40;51.70;;;;;;5054337;28;20281;-84
2022/09/08 11:32:16;;;;;;;0.70;0.70;;;26.40;51.80;;;;;;5054185;28;20256;-83
2022/09/08 11:35:01;;;;;;;0.80;0.80;;;26.40;51.90;;;;;;5054693;28;20654;-83
2022/09/08 11:38:03;;;;;;;0.95;0.80;;;26.40;51.90;;;;;;5053884;28;20209;-83
2022/09/08 11:41:15;;;;;;;0.68;0.68;;;26.40;51.90;;;;;;5008468;28;20214;-84
2022/09/08 11:43:52;;;;;;;1.45;0.82;;;26.40;51.90;;;;;;4971129;28;20228;-83
2022/09/08 11:46:36;;;;;;;0.70;0.70;;;26.40;51.90;;;;;;5029526;28;20265;-84
2022/09/08 11:49:42;;;;;;;0.55;0.50;;;26.40;52.00;;;;;;5034987;28;20291;-84
2022/09/08 11:52:30;;;;;;;0.65;0.65;;;26.50;52.10;;;;;;5013248;28;20572;-84
2022/09/08 11:55:18;;;;;;;0.70;0.70;;;26.40;52.00;;;;;;5035929;28;20191;-84
2022/09/08 11:57:54;;;;;;;0.70;0.70;;;26.40;51.90;;;;;;5035185;28;20195;-84
2022/09/08 12:00:49;;;;;;;0.68;0.68;;;26.40;51.90;;;;;;5035145;28;20252;-84
2022/09/08 12:03:38;;;;;;;1.23;0.60;;;26.40;52.10;;;;;;5036687;28;20707;-84
2022/09/08 12:06:36;;;;;;;0.70;0.70;;;26.40;52.10;;;;;;5035346;28;20195;-84
2022/09/08 12:09:34;;;;;;;0.93;0.80;;;26.40;52.20;;;;;;5021194;28;20353;-84
2022/09/08 12:12:21;;;;;;;0.60;0.60;;;26.40;52.30;;;;;;5025977;28;20688;-83
2022/09/08 12:14:55;;;;;;;0.80;0.80;;;26.40;52.30;;;;;;5035606;28;20202;-84
2022/09/08 12:17:28;;;;;;;0.73;0.70;;;26.30;52.20;;;;;;5034065;28;20191;-83
2022/09/08 12:20:17;;;;;;;1.33;0.90;;;26.30;52.20;;;;;;5033748;28;20183;-83
2022/09/08 12:22:56;;;;;;;0.90;0.70;;;26.30;52.10;;;;;;5034112;28;20229;-83
2022/09/08 12:25:45;;;;;;;1.00;0.68;;;26.30;52.10;;;;;;5050927;28;20192;-83
2022/09/08 12:28:25;;;;;;;1.02;0.60;;;26.30;52.20;;;;;;5033556;28;20183;-83
2022/09/08 12:31:00;;;;;;;1.30;0.73;;;26.30;52.20;;;;;;5033434;28;20226;-83
2022/09/08 12:33:41;;;;;;;1.23;0.73;;;26.30;52.20;;;;;;5033542;28;20658;-83
2022/09/08 12:36:10;;;;;;;1.05;0.70;;;26.30;52.10;;;;;;5033367;28;20195;-83
2022/09/08 12:39:03;;;;;;;0.73;0.73;;;26.30;52.10;;;;;;5034175;28;20203;-83
2022/09/08 12:41:52;;;;;;;0.80;0.80;;;26.30;52.00;;;;;;5034201;28;20261;-84
2022/09/08 12:44:29;;;;;;;2.40;0.98;;;26.40;52.10;;;;;;5035178;28;20223;-84
2022/09/08 12:47:03;;;;;;;0.70;0.70;;;26.40;52.10;;;;;;5034022;28;20195;-83
2022/09/08 12:50:02;;;;;;;0.70;0.60;;;26.40;52.10;;;;;;5033818;28;20198;-84
2022/09/08 12:52:53;;;;;;;0.80;0.80;;;26.40;52.20;;;;;;5033409;28;20214;-83
2022/09/08 12:55:23;;;;;;;0.63;0.60;;;26.40;52.20;;;;;;5033796;28;20195;-83
2022/09/08 12:57:55;;;;;;;0.88;0.80;;;26.40;52.20;;;;;;5034645;28;20203;-84
2022/09/08 13:00:26;;;;;;;0.73;0.70;;;26.40;52.30;;;;;;5038621;28;20756;-83
2022/09/08 13:03:28;;;;;;;0.90;0.80;;;26.40;52.20;;;;;;5053260;28;20217;-83
2022/09/08 13:06:27;;;;;;;0.95;0.80;;;26.40;52.20;;;;;;5053424;28;20198;-83
2022/09/08 13:08:58;;;;;;;1.60;1.17;;;26.40;52.30;;;;;;5052952;28;20561;-83
2022/09/08 13:11:48;;;;;;;0.75;0.70;;;26.40;52.30;;;;;;5053361;28;20569;-84
2022/09/08 13:14:15;;;;;;;0.60;0.60;;;26.40;52.20;;;;;;5053407;28;20213;-84
2022/09/08 13:16:49;;;;;;;0.80;0.75;;;26.40;52.20;;;;;;5053937;28;20226;-83
2022/09/08 13:19:26;;;;;;;0.75;0.73;;;26.40;52.20;;;;;;5053103;28;20636;-83
2022/09/08 13:22:23;;;;;;;1.13;0.73;;;26.30;52.10;;;;;;5053068;28;20253;-83
2022/09/08 13:24:55;;;;;;;2.17;0.90;;;26.40;52.10;;;;;;5050875;28;20265;-83
2022/09/08 13:27:32;;;;;;;0.60;0.60;;;26.40;52.10;;;;;;5052874;28;20194;-83
2022/09/08 13:30:11;;;;;;;0.75;0.75;;;26.40;52.10;;;;;;5053061;28;20281;-83